Terminal Aerodrome Forecast
Issued by NWS

Home | Current Version | Previous Version | Text Only | Print | Product List | Glossary On
Versions: 1 2 3 4 5 6 7 8 9 10 11 12 13 14 15 16
000
FTUS46 KPDT 250500
TAFPSC
TAF
KPSC 250525Z 2506/2606 32006KT P6SM BKN250
     FM250800 36004KT 1SM BR SCT008 SCT250
     FM251700 VRB04KT P6SM SCT020 BKN120
     FM252100 15012G18KT P6SM BKN100
     FM260100 17020G30KT P6SM VCSH BKN070 OVC090=

USA.gov is the U.S. government's official web portal to all federal, state and local government web resources and services.